Main page


Airports :

Gwadar, Pakistan

Gwadar International Airport

latitude: 25-13-59N, longitude: 062-19-46E, elevation: 29 m

METAR: missing

Time: 14:59 (09:59 UTC)


The report was made 6 hours and 29 minutes ago, at 03:30 UTC
Forecast valid from 18 at 06 UTC to 19 at 06 UTC
Wind 10 kt from the Southeast
Visibility: 5000 m
from 18 at 18 UTC to 18 at 20 UTC
Wind 10 kt from the Southwest
Visibility: 3000 m
Scattered clouds at a height of 3000 ft
Scattered clouds at a height of 10000 ft
from 19 at 00 UTC to 19 at 04 UTC
Wind kt from the North
Visibility: 2000 m
Scattered clouds at a height of 2000 ft

TAF: OPGD 180330Z 1806/1906 13010KT 5000 HZ NSC BECMG 1818/1820 23010KT 3000 FU SCT030 SCT100 TEMPO 1900/1904 00000KT 2000 BR SCT020

Weather observations and forecasts of more than 4000 airports (METAR and TAF reports).

The available stations are represented by yellow and red dots on the map.

Hover mouse over dot to see the name of the station.

Then click to see weather observations and forecasts.

To change the map : click on the green buttons with a black cross to zoom in, on the green button with a dash to zoom out, or on the green arrows for adjacent maps.